This is the latest recevied weather packets stored in our database for station/object KV9E. If no packets are shown the sender has not sent any weather packets the latest 1 day(s).
| Time | Temp. | Humidity | Pressure | Rain* | Wind** | Luminosity | Snow |
|---|---|---|---|---|---|---|---|
| 1778004749 | 18.89° C | 60% | 1012 hPa | 0 mm | 0.45 m/s, 178° | 238 W/m² | - |
| 1778004445 | 18.33° C | 60% | 1012.1 hPa | 0 mm | 2.68 m/s, 281° | 199 W/m² | - |
| 1778004142 | 18.89° C | 60% | 1012 hPa | 0 mm | 0 m/s | 193 W/m² | - |
| 1778003838 | 18.89° C | 61% | 1012.3 hPa | 0 mm | 0.89 m/s, 182° | 157 W/m² | - |
| 1778003535 | 18.89° C | 63% | 1012.6 hPa | 0 mm | 0.45 m/s, 200° | 169 W/m² | - |
| 1778003231 | 19.44° C | 59% | 1012.5 hPa | 0 mm | 0.45 m/s, 150° | 238 W/m² | - |
| 1778002928 | 19.44° C | 60% | 1012.8 hPa | 0 mm | 0.89 m/s, 133° | 279 W/m² | - |
| 1778002624 | 19.44° C | 60% | 1012.7 hPa | 0 mm | 0.45 m/s, 132° | 326 W/m² | - |
| 1778002321 | 19.44° C | 61% | 1012.7 hPa | 0 mm | 1.79 m/s, 215° | 351 W/m² | - |
| 1778002018 | 18.89° C | 61% | 1012.9 hPa | 0 mm | 1.34 m/s, 199° | 344 W/m² | - |
| 1778001715 | 19.44° C | 61% | 1012.8 hPa | 0 mm | 0.89 m/s, 210° | 335 W/m² | - |
| 1778001415 | 19.44° C | 61% | 1012.9 hPa | 0 mm | 1.79 m/s, 216° | 364 W/m² | - |
| 1778001112 | 18.89° C | 61% | 1012.9 hPa | 0 mm | 1.34 m/s, 25° | 409 W/m² | - |
| 1778000809 | 18.89° C | 63% | 1013.2 hPa | 0 mm | 2.24 m/s, 65° | 319 W/m² | - |
| 1778000506 | 19.44° C | 63% | 1013.2 hPa | 0 mm | 1.34 m/s, 200° | 271 W/m² | - |
| 1778000201 | 18.89° C | 64% | 1013 hPa | 0 mm | 1.34 m/s, 226° | 279 W/m² | - |
| 1777999897 | 19.44° C | 63% | 1013.3 hPa | 0 mm | 0.89 m/s, 203° | 344 W/m² | - |
| 1777999593 | 19.44° C | 63% | 1013.5 hPa | 0 mm | 0 m/s | 352 W/m² | - |
| 1777999291 | 19.44° C | 66% | 1013.4 hPa | 0 mm | 0.89 m/s, 188° | 272 W/m² | - |
| 1777998989 | 18.89° C | 66% | 1013.8 hPa | 0 mm | 0 m/s | 250 W/m² | - |
| 1777998686 | 18.89° C | 65% | 1013.5 hPa | 0 mm | 0.45 m/s, 181° | 240 W/m² | - |
| 1777998383 | 18.89° C | 66% | 1013.6 hPa | 0 mm | 0 m/s | 363 W/m² | - |
| 1777998081 | 19.44° C | 65% | 1013.8 hPa | 0 mm | 0.89 m/s, 210° | 344 W/m² | - |
| 1777997778 | 19.44° C | 65% | 1013.8 hPa | 0 mm | 0.45 m/s, 167° | 392 W/m² | - |
| 1777997475 | 18.89° C | 64% | 1013.6 hPa | 0 mm | 0 m/s | 362 W/m² | - |
* Rain latest hour (hover to see other rain measurements)
** Current wind speed in m/s (hover to see current wind gust speed)